createdAt,value
2023-03-08T00:01:15.266Z,100006.56
2023-03-08T00:03:42.149Z,100018.69
2023-03-08T00:06:11.464Z,100013.69
2023-03-08T00:08:38.259Z,100013.03
2023-03-08T00:11:06.332Z,100002.22
2023-03-08T00:13:32.962Z,99989.97
2023-03-08T00:16:01.466Z,99998.75
2023-03-08T00:18:27.914Z,100007.03
2023-03-08T00:21:01.904Z,100003.84
2023-03-08T00:23:28.298Z,100007.69
2023-03-08T00:25:55.160Z,100001.03
2023-03-08T00:28:21.675Z,100009.81
2023-03-08T00:31:09.134Z,100005.47
2023-03-08T00:33:36.327Z,100002.81
2023-03-08T00:36:06.790Z,99997.50
2023-03-08T00:38:35.835Z,100001.16
2023-03-08T00:41:02.886Z,100000.50
2023-03-08T00:43:31.922Z,99996.84
2023-03-08T00:45:58.685Z,99997.50
2023-03-08T00:48:25.104Z,100003.69
2023-03-08T00:50:51.981Z,99998.50
2023-03-08T00:53:19.103Z,100007.47
2023-03-08T00:55:51.578Z,99996.66
2023-03-08T00:58:18.767Z,99993.16
2023-03-08T01:00:46.078Z,99984.38
2023-03-08T01:03:13.007Z,99984.22
2023-03-08T01:05:44.697Z,99982.41
2023-03-08T01:08:13.779Z,99978.25
2023-03-08T01:10:40.964Z,99976.41
2023-03-08T01:13:08.378Z,99979.06
2023-03-08T01:15:36.901Z,99968.28
2023-03-08T01:18:05.563Z,99966.16
2023-03-08T01:20:32.899Z,99964.00
2023-03-08T01:22:59.442Z,99974.50
2023-03-08T01:25:26.113Z,99962.34
2023-03-08T01:27:52.533Z,99960.69
2023-03-08T01:30:19.236Z,99967.66
2023-03-08T01:32:45.714Z,99968.81
2023-03-08T01:35:12.241Z,99956.50
2023-03-08T01:37:38.788Z,99960.09
2023-03-08T01:40:06.284Z,99958.59
2023-03-08T01:42:33.287Z,99958.75
2023-03-08T01:45:03.392Z,99955.63
2023-03-08T01:47:33.267Z,99954.50
2023-03-08T01:50:11.954Z,99947.69
2023-03-08T01:52:43.246Z,99950.16
2023-03-08T01:55:12.789Z,99939.53
2023-03-08T01:57:47.469Z,99936.75
2023-03-08T02:00:22.903Z,99927.09
2023-03-08T02:02:59.568Z,99931.44
2023-03-08T02:05:27.158Z,99921.97
2023-03-08T02:07:58.833Z,99914.19
2023-03-08T02:10:28.940Z,99927.09
2023-03-08T02:12:55.654Z,99921.16
2023-03-08T02:15:22.719Z,99909.84
2023-03-08T02:17:52.974Z,99900.72
2023-03-08T02:20:27.578Z,99904.19
2023-03-08T02:22:54.260Z,99909.81
2023-03-08T02:25:25.147Z,99909.16
2023-03-08T02:27:53.484Z,99904.84
2023-03-08T02:30:25.592Z,99905.69
2023-03-08T02:32:53.326Z,99896.06
2023-03-08T02:35:19.708Z,99902.19
2023-03-08T02:37:46.121Z,99896.72
2023-03-08T02:40:13.442Z,99890.94
2023-03-08T02:42:40.273Z,99892.59
2023-03-08T02:45:07.761Z,99895.25
2023-03-08T02:47:34.231Z,99898.91
2023-03-08T02:50:00.635Z,99885.81
2023-03-08T02:52:27.132Z,99886.94
2023-03-08T02:54:53.927Z,99885.28
2023-03-08T02:57:22.182Z,99882.81
2023-03-08T02:59:49.980Z,99876.50
2023-03-08T03:02:16.998Z,99871.84
2023-03-08T03:04:43.524Z,99873.38
2023-03-08T03:07:09.887Z,99874.88
2023-03-08T03:09:37.278Z,99884.50
2023-03-08T03:12:04.059Z,99870.22
2023-03-08T03:14:34.667Z,99863.28
2023-03-08T03:17:02.317Z,99867.91
2023-03-08T03:19:28.790Z,99855.63
2023-03-08T03:21:55.231Z,99857.94
2023-03-08T03:24:21.743Z,99852.78
2023-03-08T03:26:54.778Z,99858.25
2023-03-08T03:29:23.368Z,99854.94
2023-03-08T03:31:55.809Z,99840.00
2023-03-08T03:34:22.784Z,99837.22
2023-03-08T03:36:50.059Z,99839.69
2023-03-08T03:39:16.646Z,99845.69
2023-03-08T03:41:44.613Z,99838.03
2023-03-08T03:44:13.804Z,99830.09
2023-03-08T03:46:42.971Z,99822.94
2023-03-08T03:49:11.501Z,99815.00
2023-03-08T03:51:41.339Z,99811.53
2023-03-08T03:54:19.335Z,99803.72
2023-03-08T03:56:47.320Z,99804.06
2023-03-08T03:59:14.129Z,99798.88
2023-03-08T04:01:40.762Z,99800.88
2023-03-08T04:04:17.838Z,99799.38
2023-03-08T04:06:46.446Z,99795.25
2023-03-08T04:09:17.613Z,99798.84
2023-03-08T04:11:48.482Z,99800.38
2023-03-08T04:14:18.994Z,99800.88
2023-03-08T04:16:45.560Z,99793.75
2023-03-08T04:19:20.666Z,99792.75
2023-03-08T04:21:51.360Z,99784.66
2023-03-08T04:24:19.717Z,99793.28
2023-03-08T04:26:50.032Z,99783.50
2023-03-08T04:29:18.953Z,99780.84
2023-03-08T04:31:45.926Z,99781.53
2023-03-08T04:34:15.966Z,99774.53
2023-03-08T04:36:44.203Z,99775.41
2023-03-08T04:39:10.689Z,99769.22
2023-03-08T04:41:37.267Z,99770.91
2023-03-08T04:44:24.008Z,99758.47
2023-03-08T04:46:52.458Z,99751.53
2023-03-08T04:49:26.472Z,99753.50
2023-03-08T04:51:58.661Z,99749.03
2023-03-08T04:54:25.360Z,99739.41
2023-03-08T04:56:58.726Z,99737.75
2023-03-08T04:59:25.659Z,99732.59
2023-03-08T05:01:55.046Z,99718.16
2023-03-08T05:04:22.535Z,99718.78
2023-03-08T05:06:49.109Z,99723.13
2023-03-08T05:09:20.642Z,99712.34
2023-03-08T05:11:49.895Z,99710.53
2023-03-08T05:14:16.422Z,99702.41
2023-03-08T05:16:42.936Z,99698.44
2023-03-08T05:19:10.348Z,99698.28
2023-03-08T05:21:44.461Z,99692.31
2023-03-08T05:24:11.069Z,99688.00
2023-03-08T05:26:40.161Z,99672.09
2023-03-08T05:29:08.246Z,99666.78
2023-03-08T05:31:37.599Z,99664.16
2023-03-08T05:34:10.648Z,99665.66
2023-03-08T05:36:38.942Z,99663.16
2023-03-08T05:39:07.461Z,99665.78
2023-03-08T05:41:43.616Z,99657.19
2023-03-08T05:44:11.264Z,99647.59
2023-03-08T05:46:39.438Z,99643.13
2023-03-08T05:49:07.588Z,99638.13
2023-03-08T05:51:35.872Z,99637.31
2023-03-08T05:54:02.727Z,99636.47
2023-03-08T05:56:31.446Z,99635.16
2023-03-08T05:59:20.837Z,99622.53
2023-03-08T06:01:47.694Z,99628.50
2023-03-08T06:04:22.743Z,99625.31
2023-03-08T06:06:50.828Z,99621.66
2023-03-08T06:09:19.634Z,99628.78
2023-03-08T06:11:47.066Z,99624.13
2023-03-08T06:14:14.312Z,99626.66
2023-03-08T06:16:41.359Z,99618.00
2023-03-08T06:19:07.756Z,99618.38
2023-03-08T06:21:35.738Z,99616.22
2023-03-08T06:24:03.935Z,99619.53
2023-03-08T06:26:30.831Z,99621.06
2023-03-08T06:28:57.551Z,99617.22
2023-03-08T06:31:27.971Z,99616.41
2023-03-08T06:33:55.188Z,99616.09
2023-03-08T06:36:24.727Z,99611.28
2023-03-08T06:38:51.551Z,99616.41
2023-03-08T06:41:20.343Z,99619.06
2023-03-08T06:43:51.131Z,99619.88
2023-03-08T06:46:19.092Z,99614.28
2023-03-08T06:48:47.252Z,99618.56
2023-03-08T06:51:14.920Z,99616.09
2023-03-08T06:53:44.105Z,99614.44
2023-03-08T06:56:14.464Z,99615.91
2023-03-08T06:58:41.346Z,99612.44
2023-03-08T07:01:09.595Z,99615.78
2023-03-08T07:03:37.180Z,99609.28
2023-03-08T07:06:07.180Z,99610.63
2023-03-08T07:08:34.632Z,99612.94
2023-03-08T07:11:01.483Z,99617.09
2023-03-08T07:13:29.689Z,99605.31
2023-03-08T07:15:56.914Z,99603.34
2023-03-08T07:18:23.702Z,99603.69
2023-03-08T07:20:56.808Z,99598.69
2023-03-08T07:23:23.722Z,99594.72
2023-03-08T07:25:50.206Z,99584.94
2023-03-08T07:28:16.663Z,99591.25
2023-03-08T07:30:50.894Z,99586.13
2023-03-08T07:33:19.858Z,99589.09
2023-03-08T07:35:47.037Z,99576.13
2023-03-08T07:38:13.630Z,99586.25
2023-03-08T07:40:40.115Z,99577.47
2023-03-08T07:43:06.818Z,99584.09
2023-03-08T07:45:45.445Z,99584.94
2023-03-08T07:48:11.889Z,99583.94
2023-03-08T07:50:38.309Z,99588.59
2023-03-08T07:53:04.831Z,99574.31
2023-03-08T07:55:31.253Z,99576.13
2023-03-08T07:57:57.632Z,99572.66
2023-03-08T08:00:24.267Z,99569.19
2023-03-08T08:02:53.930Z,99564.03
2023-03-08T08:05:22.025Z,99557.91
2023-03-08T08:07:48.831Z,99560.03
2023-03-08T08:10:15.430Z,99560.69
2023-03-08T08:12:41.885Z,99558.22
2023-03-08T08:15:08.495Z,99551.59
2023-03-08T08:17:34.966Z,99557.41
2023-03-08T08:20:01.406Z,99545.09
2023-03-08T08:22:27.768Z,99556.09
2023-03-08T08:24:54.168Z,99553.78
2023-03-08T08:27:20.522Z,99545.81
2023-03-08T08:29:49.423Z,99554.91
2023-03-08T08:32:15.881Z,99556.41
2023-03-08T08:34:42.398Z,99545.78
2023-03-08T08:37:08.776Z,99546.44
2023-03-08T08:39:35.312Z,99547.75
2023-03-08T08:42:01.785Z,99543.75
2023-03-08T08:44:28.284Z,99543.09
2023-03-08T08:46:54.756Z,99542.09
2023-03-08T08:49:21.171Z,99542.09
2023-03-08T08:51:47.583Z,99541.28
2023-03-08T08:54:14.054Z,99535.59
2023-03-08T08:56:42.899Z,99531.44
2023-03-08T08:59:11.839Z,99537.94
2023-03-08T09:01:43.431Z,99533.47
2023-03-08T09:04:12.029Z,99533.91
2023-03-08T09:06:38.802Z,99527.06
2023-03-08T09:09:05.914Z,99523.72
2023-03-08T09:11:34.672Z,99520.00
2023-03-08T09:14:02.497Z,99514.53
2023-03-08T09:16:31.529Z,99510.41
2023-03-08T09:18:59.438Z,99509.06
2023-03-08T09:21:28.050Z,99508.81
2023-03-08T09:23:55.832Z,99500.94
2023-03-08T09:26:22.242Z,99512.44
2023-03-08T09:28:48.682Z,99497.31
2023-03-08T09:31:16.853Z,99500.13
2023-03-08T09:33:48.848Z,99503.94
2023-03-08T09:36:15.694Z,99505.09
2023-03-08T09:38:42.882Z,99499.84
2023-03-08T09:41:40.497Z,99501.31
2023-03-08T09:44:12.763Z,99513.16
2023-03-08T09:46:58.918Z,99507.38
2023-03-08T09:49:30.506Z,99509.06
2023-03-08T09:52:07.683Z,99497.38
2023-03-08T09:54:38.100Z,99497.94
2023-03-08T09:57:11.748Z,99497.56
2023-03-08T09:59:44.773Z,99492.72
2023-03-08T10:02:37.334Z,99492.13
2023-03-08T10:05:30.782Z,99491.72
2023-03-08T10:08:06.005Z,99496.53
2023-03-08T10:11:04.145Z,99484.47
2023-03-08T10:13:40.172Z,99494.75
2023-03-08T10:16:23.550Z,99490.13
2023-03-08T10:19:00.148Z,99484.19
2023-03-08T10:21:29.499Z,99477.84
2023-03-08T10:24:04.926Z,99476.66
2023-03-08T10:26:31.511Z,99461.25
2023-03-08T10:28:57.864Z,99466.13
2023-03-08T10:31:27.202Z,99464.63
2023-03-08T10:34:11.473Z,99452.19
2023-03-08T10:37:06.639Z,99443.28
2023-03-08T10:39:34.993Z,99435.66
2023-03-08T10:42:07.037Z,99440.50
2023-03-08T10:44:44.456Z,99437.03
2023-03-08T10:47:23.995Z,99433.34
2023-03-08T10:50:12.117Z,99420.00
2023-03-08T10:52:38.521Z,99425.41
2023-03-08T10:55:06.368Z,99429.41
2023-03-08T10:57:33.682Z,99423.91
2023-03-08T11:00:29.247Z,99423.75
2023-03-08T11:03:23.419Z,99434.59
2023-03-08T11:06:00.309Z,99443.19
2023-03-08T11:08:35.895Z,99446.44
2023-03-08T11:11:03.453Z,99453.94
2023-03-08T11:13:33.335Z,99451.81
2023-03-08T11:16:41.029Z,99476.06
2023-03-08T11:19:32.280Z,99481.50
2023-03-08T11:22:07.797Z,99481.13
2023-03-08T11:24:40.292Z,99490.13
2023-03-08T11:27:43.710Z,99499.28
2023-03-08T11:30:24.211Z,99483.88
2023-03-08T11:33:09.535Z,99462.59
2023-03-08T11:36:00.228Z,99438.22
2023-03-08T11:38:30.268Z,99418.72
2023-03-08T11:40:56.599Z,99417.75
2023-03-08T11:43:47.209Z,99418.28
2023-03-08T11:46:30.398Z,99407.00
2023-03-08T11:49:13.066Z,99403.31
2023-03-08T11:51:55.403Z,99397.09
2023-03-08T11:54:39.860Z,99415.84
2023-03-08T11:57:10.315Z,99415.16
2023-03-08T11:59:44.166Z,99416.53
2023-03-08T12:02:18.554Z,99414.19
2023-03-08T12:04:58.114Z,99421.78
2023-03-08T12:07:28.094Z,99415.56
2023-03-08T12:10:00.806Z,99411.13
2023-03-08T12:12:37.405Z,99401.34
2023-03-08T12:15:19.808Z,99405.47
2023-03-08T12:17:53.996Z,99392.28
2023-03-08T12:20:22.255Z,99390.72
2023-03-08T12:23:08.366Z,99385.13
2023-03-08T12:25:40.292Z,99382.63
2023-03-08T12:28:45.106Z,99382.38
2023-03-08T12:31:27.422Z,99382.47
2023-03-08T12:33:57.781Z,99387.22
2023-03-08T12:36:38.076Z,99394.56
2023-03-08T12:39:25.469Z,99394.38
2023-03-08T12:42:14.470Z,99388.50
2023-03-08T12:44:41.304Z,99385.03
2023-03-08T12:47:13.743Z,99398.34
2023-03-08T12:49:43.770Z,99385.97
2023-03-08T12:52:19.391Z,99382.28
2023-03-08T12:55:01.876Z,99390.00
2023-03-08T12:57:32.769Z,99393.56
2023-03-08T13:00:10.370Z,99393.50
2023-03-08T13:02:36.815Z,99402.44
2023-03-08T13:05:29.193Z,99407.16
2023-03-08T13:08:04.221Z,99402.84
2023-03-08T13:10:37.738Z,99405.78
2023-03-08T13:13:35.037Z,99406.69
2023-03-08T13:16:21.882Z,99415.66
2023-03-08T13:18:52.761Z,99417.69
2023-03-08T13:21:47.883Z,99412.94
2023-03-08T13:24:36.250Z,99409.63
2023-03-08T13:27:21.529Z,99407.97
2023-03-08T13:29:48.144Z,99391.91
2023-03-08T13:32:20.399Z,99395.59
2023-03-08T13:35:04.947Z,99390.16
2023-03-08T13:37:32.227Z,99387.31
2023-03-08T13:40:00.057Z,99371.19
2023-03-08T13:42:28.865Z,99377.59
2023-03-08T13:45:16.019Z,99375.28
2023-03-08T13:47:45.851Z,99377.59
2023-03-08T13:50:24.906Z,99382.09
2023-03-08T13:52:51.777Z,99358.59
2023-03-08T13:55:21.471Z,99368.31
2023-03-08T13:57:52.242Z,99359.78
2023-03-08T14:00:18.688Z,99364.66
2023-03-08T14:02:47.203Z,99369.81
2023-03-08T14:05:18.607Z,99355.38
2023-03-08T14:07:59.389Z,99353.56
2023-03-08T14:10:34.507Z,99357.53
2023-03-08T14:13:01.618Z,99371.38
2023-03-08T14:15:38.791Z,99377.31
2023-03-08T14:18:08.230Z,99370.63
2023-03-08T14:20:34.712Z,99375.69
2023-03-08T14:23:01.195Z,99367.16
2023-03-08T14:25:30.866Z,99363.19
2023-03-08T14:27:58.237Z,99375.28
2023-03-08T14:30:28.042Z,99362.09
2023-03-08T14:33:07.042Z,99369.97
2023-03-08T14:35:38.347Z,99361.34
2023-03-08T14:38:13.486Z,99357.31
2023-03-08T14:40:48.683Z,99352.03
2023-03-08T14:43:23.745Z,99351.94
2023-03-08T14:45:56.776Z,99353.31
2023-03-08T14:48:24.940Z,99343.91
2023-03-08T14:50:54.678Z,99341.84
2023-03-08T14:53:34.472Z,99344.16
2023-03-08T14:56:05.371Z,99347.81
2023-03-08T14:58:33.648Z,99340.34
2023-03-08T15:01:02.195Z,99333.75
2023-03-08T15:03:32.279Z,99337.91
2023-03-08T15:06:04.791Z,99332.09
2023-03-08T15:08:31.268Z,99329.72
2023-03-08T15:10:57.777Z,99338.28
2023-03-08T15:13:24.752Z,99340.59
2023-03-08T15:15:51.275Z,99341.50
2023-03-08T15:18:17.946Z,99334.22
2023-03-08T15:20:49.335Z,99329.69
2023-03-08T15:23:28.568Z,99321.72
2023-03-08T15:25:55.244Z,99317.22
2023-03-08T15:28:22.992Z,99321.34
2023-03-08T15:30:52.739Z,99319.97
2023-03-08T15:33:19.680Z,99312.91
2023-03-08T15:35:47.225Z,99312.75
2023-03-08T15:38:15.388Z,99311.47
2023-03-08T15:40:42.445Z,99313.09
2023-03-08T15:43:09.421Z,99314.50
2023-03-08T15:45:36.506Z,99313.97
2023-03-08T15:48:05.875Z,99313.72
2023-03-08T15:50:33.408Z,99310.44
2023-03-08T15:53:00.442Z,99307.22
2023-03-08T15:55:29.008Z,99302.63
2023-03-08T15:57:55.742Z,99304.38
2023-03-08T16:00:23.770Z,99301.31
2023-03-08T16:02:53.532Z,99307.63
2023-03-08T16:05:22.719Z,99304.59
2023-03-08T16:07:57.703Z,99308.31
2023-03-08T16:10:24.329Z,99311.38
2023-03-08T16:12:50.962Z,99321.38
2023-03-08T16:15:17.530Z,99320.56
2023-03-08T16:17:44.212Z,99311.84
2023-03-08T16:20:12.475Z,99307.50
2023-03-08T16:22:39.445Z,99298.53
2023-03-08T16:25:06.737Z,99301.00
2023-03-08T16:27:38.102Z,99306.06
2023-03-08T16:30:05.349Z,99305.84
2023-03-08T16:32:31.872Z,99305.59
2023-03-08T16:34:59.135Z,99310.84
2023-03-08T16:37:25.988Z,99306.75
2023-03-08T16:39:54.445Z,99307.56
2023-03-08T16:42:21.539Z,99307.69
2023-03-08T16:44:50.913Z,99311.41
2023-03-08T16:47:18.102Z,99311.41
2023-03-08T16:49:45.066Z,99305.19
2023-03-08T16:52:11.647Z,99301.97
2023-03-08T16:54:38.071Z,99301.09
2023-03-08T16:57:18.291Z,99293.91
2023-03-08T16:59:45.745Z,99290.25
2023-03-08T17:02:17.020Z,99289.63
2023-03-08T17:04:44.067Z,99296.38
2023-03-08T17:07:10.989Z,99297.03
2023-03-08T17:09:38.587Z,99305.84
2023-03-08T17:12:06.781Z,99305.66
2023-03-08T17:14:34.923Z,99297.00
2023-03-08T17:17:01.862Z,99296.59
2023-03-08T17:19:28.397Z,99298.75
2023-03-08T17:21:54.844Z,99294.94
2023-03-08T17:24:21.714Z,99292.56
2023-03-08T17:26:52.569Z,99291.19
2023-03-08T17:29:19.368Z,99294.50
2023-03-08T17:31:45.796Z,99293.72
2023-03-08T17:34:12.723Z,99282.25
2023-03-08T17:36:39.374Z,99282.63
2023-03-08T17:39:06.051Z,99284.09
2023-03-08T17:41:32.681Z,99292.00
2023-03-08T17:43:59.166Z,99293.66
2023-03-08T17:46:29.397Z,99299.63
2023-03-08T17:48:56.419Z,99299.63
2023-03-08T17:51:26.557Z,99302.84
2023-03-08T17:53:53.741Z,99312.00
2023-03-08T17:56:24.955Z,99311.19
2023-03-08T17:58:52.468Z,99308.63
2023-03-08T18:01:21.285Z,99306.53
2023-03-08T18:03:48.579Z,99313.44
2023-03-08T18:06:31.768Z,99313.97
2023-03-08T18:08:59.781Z,99315.97
2023-03-08T18:11:27.475Z,99313.59
2023-03-08T18:13:54.738Z,99299.31
2023-03-08T18:16:22.013Z,99300.28
2023-03-08T18:18:49.986Z,99288.66
2023-03-08T18:21:17.959Z,99293.69
2023-03-08T18:23:45.368Z,99297.81
2023-03-08T18:26:13.470Z,99302.53
2023-03-08T18:28:40.600Z,99299.66
2023-03-08T18:31:09.438Z,99306.63
2023-03-08T18:33:36.262Z,99301.16
2023-03-08T18:36:03.744Z,99292.78
2023-03-08T18:38:30.207Z,99289.59
2023-03-08T18:40:56.639Z,99299.00
2023-03-08T18:43:23.061Z,99291.59
2023-03-08T18:45:53.933Z,99289.03
2023-03-08T18:48:21.184Z,99281.91
2023-03-08T18:50:47.672Z,99287.59
2023-03-08T18:53:15.682Z,99286.00
2023-03-08T18:55:54.273Z,99267.88
2023-03-08T18:58:21.433Z,99265.56
2023-03-08T19:00:48.246Z,99271.38
2023-03-08T19:03:14.690Z,99273.72
2023-03-08T19:05:41.204Z,99276.56
2023-03-08T19:08:07.624Z,99266.66
2023-03-08T19:10:34.035Z,99263.75
2023-03-08T19:13:00.535Z,99267.50
2023-03-08T19:15:26.986Z,99265.84
2023-03-08T19:17:59.655Z,99262.28
2023-03-08T19:20:26.583Z,99253.84
2023-03-08T19:22:53.431Z,99255.69
2023-03-08T19:25:19.861Z,99252.09
2023-03-08T19:27:46.243Z,99255.41
2023-03-08T19:30:12.790Z,99249.72
2023-03-08T19:32:40.990Z,99263.75
2023-03-08T19:35:09.291Z,99253.19
2023-03-08T19:37:35.902Z,99259.06
2023-03-08T19:40:05.138Z,99265.50
2023-03-08T19:42:31.500Z,99263.09
2023-03-08T19:44:58.352Z,99261.47
2023-03-08T19:47:24.778Z,99266.13
2023-03-08T19:49:51.316Z,99266.13
2023-03-08T19:52:17.979Z,99263.66
2023-03-08T19:54:45.381Z,99254.47
2023-03-08T19:57:11.842Z,99261.25
2023-03-08T19:59:38.367Z,99265.75
2023-03-08T20:02:07.214Z,99268.59
2023-03-08T20:04:34.082Z,99264.31
2023-03-08T20:07:01.054Z,99268.06
2023-03-08T20:09:27.753Z,99269.34
2023-03-08T20:11:58.442Z,99272.75
2023-03-08T20:14:27.118Z,99269.06
2023-03-08T20:16:54.488Z,99262.38
2023-03-08T20:19:21.044Z,99269.63
2023-03-08T20:21:47.474Z,99262.00
2023-03-08T20:24:14.407Z,99263.75
2023-03-08T20:26:41.941Z,99254.84
2023-03-08T20:29:08.827Z,99255.06
2023-03-08T20:31:35.347Z,99257.25
2023-03-08T20:34:01.781Z,99268.50
2023-03-08T20:36:29.389Z,99273.06
2023-03-08T20:38:57.876Z,99279.56
2023-03-08T20:41:24.593Z,99265.94
2023-03-08T20:43:52.451Z,99264.56
2023-03-08T20:46:21.200Z,99260.25
2023-03-08T20:48:47.744Z,99259.41
2023-03-08T20:51:19.133Z,99277.94
2023-03-08T20:53:48.803Z,99278.53
2023-03-08T20:56:17.187Z,99273.88
2023-03-08T20:58:43.655Z,99273.50
2023-03-08T21:01:12.492Z,99263.63
2023-03-08T21:03:38.910Z,99276.25
2023-03-08T21:06:13.844Z,99260.16
2023-03-08T21:08:40.993Z,99268.47
2023-03-08T21:11:07.512Z,99266.44
2023-03-08T21:13:34.436Z,99275.06
2023-03-08T21:16:06.592Z,99274.34
2023-03-08T21:18:32.983Z,99270.03
2023-03-08T21:20:59.783Z,99270.94
2023-03-08T21:23:26.588Z,99263.91
2023-03-08T21:25:53.966Z,99249.44
2023-03-08T21:28:21.712Z,99248.63
2023-03-08T21:30:49.738Z,99255.66
2023-03-08T21:33:16.159Z,99256.69
2023-03-08T21:35:43.081Z,99261.88
2023-03-08T21:38:09.627Z,99254.38
2023-03-08T21:40:42.053Z,99257.38
2023-03-08T21:43:09.181Z,99237.78
2023-03-08T21:45:42.266Z,99234.84
2023-03-08T21:48:09.002Z,99234.03
2023-03-08T21:50:39.784Z,99244.56
2023-03-08T21:53:07.883Z,99235.22
2023-03-08T21:55:39.110Z,99220.72
2023-03-08T21:58:06.000Z,99227.59
2023-03-08T22:00:32.691Z,99232.78
2023-03-08T22:02:59.207Z,99232.97
2023-03-08T22:05:25.670Z,99243.06
2023-03-08T22:07:52.130Z,99235.63
2023-03-08T22:10:20.131Z,99241.47
2023-03-08T22:12:47.368Z,99231.69
2023-03-08T22:15:15.555Z,99240.53
2023-03-08T22:17:43.044Z,99243.38
2023-03-08T22:20:10.727Z,99233.81
2023-03-08T22:22:38.234Z,99251.34
2023-03-08T22:25:06.334Z,99255.81
2023-03-08T22:27:32.798Z,99258.00
2023-03-08T22:29:59.236Z,99255.09
2023-03-08T22:32:25.946Z,99261.13
2023-03-08T22:34:52.422Z,99260.59
2023-03-08T22:37:18.820Z,99259.09
2023-03-08T22:39:45.261Z,99252.44
2023-03-08T22:42:11.891Z,99248.09
2023-03-08T22:44:38.286Z,99252.03
2023-03-08T22:47:05.042Z,99258.28
2023-03-08T22:49:31.496Z,99250.66
2023-03-08T22:51:57.902Z,99253.31
2023-03-08T22:54:24.341Z,99248.00
2023-03-08T22:56:50.845Z,99244.34
2023-03-08T22:59:17.744Z,99235.75
2023-03-08T23:01:44.619Z,99236.09
2023-03-08T23:04:12.476Z,99235.16
2023-03-08T23:06:39.034Z,99243.47
2023-03-08T23:09:10.093Z,99260.75
2023-03-08T23:11:37.993Z,99258.81
2023-03-08T23:14:05.740Z,99261.28
2023-03-08T23:16:32.434Z,99252.22
2023-03-08T23:18:58.990Z,99248.84
2023-03-08T23:21:29.748Z,99252.28
2023-03-08T23:23:57.487Z,99254.00
2023-03-08T23:26:27.069Z,99249.16
2023-03-08T23:28:54.936Z,99244.72
2023-03-08T23:31:24.696Z,99236.47
2023-03-08T23:33:52.052Z,99237.19
2023-03-08T23:36:21.986Z,99251.91
2023-03-08T23:38:49.325Z,99248.13
2023-03-08T23:41:16.835Z,99249.31
2023-03-08T23:43:45.111Z,99257.75
2023-03-08T23:46:17.535Z,99254.78
2023-03-08T23:48:45.396Z,99242.81
2023-03-08T23:51:15.244Z,99245.78
2023-03-08T23:53:41.974Z,99250.38
2023-03-08T23:56:19.228Z,99237.84
2023-03-08T23:58:48.360Z,99227.91
